createdAt,value
2022-11-19T00:00:16.274Z,67.96
2022-11-19T00:03:22.474Z,66.82
2022-11-19T00:06:28.588Z,67.53
2022-11-19T00:09:32.532Z,66.91
2022-11-19T00:12:57.521Z,67.77
2022-11-19T00:16:04.742Z,66.58
2022-11-19T00:19:09.174Z,66.97
2022-11-19T00:22:13.235Z,67.85
2022-11-19T00:28:39.495Z,67.92
2022-11-19T00:31:42.137Z,68.05
2022-11-19T00:34:46.079Z,67.72
2022-11-19T00:37:50.105Z,68.00
2022-11-19T00:40:54.053Z,68.47
2022-11-19T00:43:58.027Z,68.05
2022-11-19T00:47:00.685Z,67.63
2022-11-19T00:50:03.402Z,67.61
2022-11-19T00:53:07.422Z,67.70
2022-11-19T00:56:13.213Z,68.16
2022-11-19T00:59:17.835Z,67.95
2022-11-19T01:02:20.633Z,68.35
2022-11-19T01:05:24.626Z,68.58
2022-11-19T01:08:28.814Z,67.74
2022-11-19T01:11:35.663Z,68.39
2022-11-19T01:14:38.345Z,68.33
2022-11-19T01:17:42.295Z,68.54
2022-11-19T01:20:46.888Z,67.29
2022-11-19T01:23:51.620Z,67.57
2022-11-19T01:26:55.572Z,68.49
2022-11-19T01:29:59.554Z,67.84
2022-11-19T01:33:02.261Z,68.17
2022-11-19T01:39:34.160Z,68.11
2022-11-19T01:42:55.039Z,67.79
2022-11-19T01:45:57.734Z,67.75
2022-11-19T01:49:05.411Z,68.09
2022-11-19T01:52:09.382Z,68.26
2022-11-19T01:55:15.385Z,68.44
2022-11-19T01:58:22.154Z,67.85
2022-11-19T02:01:26.683Z,67.88
2022-11-19T02:04:30.558Z,68.01
2022-11-19T02:07:36.599Z,67.72
2022-11-19T02:10:55.509Z,67.69
2022-11-19T02:14:08.383Z,67.77
2022-11-19T02:17:20.825Z,67.86
2022-11-19T02:20:45.316Z,68.50
2022-11-19T02:24:17.094Z,68.23
2022-11-19T02:27:55.370Z,67.74
2022-11-19T02:31:09.036Z,67.96
2022-11-19T02:34:16.654Z,68.16
2022-11-19T02:37:28.666Z,67.81
2022-11-19T02:40:37.377Z,67.55
2022-11-19T02:43:44.127Z,67.47
2022-11-19T02:46:50.576Z,68.04
2022-11-19T02:50:00.746Z,68.41
2022-11-19T02:53:04.492Z,67.91
2022-11-19T02:56:18.312Z,67.70
2022-11-19T02:59:47.428Z,67.87
2022-11-19T03:03:17.982Z,68.25
2022-11-19T03:06:25.161Z,68.01
2022-11-19T03:09:28.723Z,67.28
2022-11-19T03:12:46.981Z,68.05
2022-11-19T03:16:10.620Z,67.93
2022-11-19T03:19:28.733Z,67.88
2022-11-19T03:22:36.462Z,67.76
2022-11-19T03:25:44.650Z,68.29
2022-11-19T03:28:49.869Z,68.08
2022-11-19T03:31:57.632Z,67.67
2022-11-19T03:35:06.649Z,67.26
2022-11-19T03:38:16.168Z,67.60
2022-11-19T03:41:21.276Z,68.21
2022-11-19T03:44:29.551Z,67.07
2022-11-19T03:47:37.888Z,67.44
2022-11-19T03:50:49.573Z,67.27
2022-11-19T03:53:53.618Z,68.34
2022-11-19T03:56:59.052Z,67.99
2022-11-19T04:00:03.011Z,68.00
2022-11-19T04:03:05.821Z,68.06
2022-11-19T04:06:12.592Z,67.51
2022-11-19T04:09:16.714Z,67.41
2022-11-19T04:12:21.365Z,67.50
2022-11-19T04:15:25.407Z,67.88
2022-11-19T04:18:29.340Z,67.73
2022-11-19T04:21:34.669Z,67.39
2022-11-19T04:24:38.616Z,67.37
2022-11-19T04:27:41.288Z,67.20
2022-11-19T04:30:45.610Z,67.97
2022-11-19T04:33:48.254Z,67.65
2022-11-19T04:36:53.562Z,67.98
2022-11-19T04:39:57.594Z,68.11
2022-11-19T04:43:01.050Z,67.39
2022-11-19T04:46:05.096Z,67.63
2022-11-19T04:49:07.988Z,67.90
2022-11-19T04:52:12.130Z,68.04
2022-11-19T04:55:16.242Z,67.77
2022-11-19T04:58:23.032Z,67.18
2022-11-19T05:01:27.017Z,67.66
2022-11-19T05:04:29.810Z,67.67
2022-11-19T05:07:33.898Z,67.73
2022-11-19T05:10:37.878Z,68.03
2022-11-19T05:13:40.551Z,68.52
2022-11-19T05:16:44.517Z,68.20
2022-11-19T05:19:48.424Z,68.05
2022-11-19T05:22:52.425Z,67.89
2022-11-19T05:25:56.347Z,67.73
2022-11-19T05:28:59.022Z,67.64
2022-11-19T05:32:01.751Z,67.41
2022-11-19T05:35:05.852Z,67.64
2022-11-19T05:38:09.904Z,67.67
2022-11-19T05:41:12.574Z,67.73
2022-11-19T05:44:15.239Z,68.38
2022-11-19T05:47:18.570Z,68.53
2022-11-19T05:50:22.485Z,68.50
2022-11-19T05:53:27.285Z,68.39
2022-11-19T05:56:31.207Z,68.67
2022-11-19T05:59:33.961Z,69.48
2022-11-19T06:02:38.034Z,69.57
2022-11-19T06:05:42.051Z,69.40
2022-11-19T06:08:46.103Z,69.72
2022-11-19T06:15:12.687Z,70.31
2022-11-19T06:18:16.824Z,70.44
2022-11-19T06:21:20.161Z,70.42
2022-11-19T06:24:25.475Z,69.59
2022-11-19T06:27:29.411Z,69.92
2022-11-19T06:30:32.064Z,69.58
2022-11-19T06:33:36.011Z,69.55
2022-11-19T06:36:43.772Z,69.98
2022-11-19T06:39:51.678Z,69.77
2022-11-19T06:42:54.351Z,69.25
2022-11-19T06:45:58.301Z,69.42
2022-11-19T06:49:01.010Z,69.15
2022-11-19T06:52:04.994Z,69.64
2022-11-19T06:55:09.920Z,69.29
2022-11-19T06:58:14.616Z,69.64
2022-11-19T07:01:17.369Z,69.17
2022-11-19T07:04:21.424Z,68.94
2022-11-19T07:07:27.305Z,68.38
2022-11-19T07:10:31.673Z,68.71
2022-11-19T07:13:48.271Z,69.09
2022-11-19T07:16:52.267Z,69.02
2022-11-19T07:19:54.981Z,68.22
2022-11-19T07:22:59.382Z,68.80
2022-11-19T07:26:03.740Z,68.59
2022-11-19T07:29:09.356Z,68.59
2022-11-19T07:32:12.095Z,68.52
2022-11-19T07:35:16.049Z,68.94
2022-11-19T07:38:18.756Z,68.35
2022-11-19T07:41:41.786Z,67.83
2022-11-19T07:44:46.618Z,67.96
2022-11-19T07:47:53.003Z,69.12
2022-11-19T07:50:56.674Z,68.91
2022-11-19T07:54:00.727Z,69.32
2022-11-19T07:57:04.930Z,68.53
2022-11-19T08:00:09.303Z,67.81
2022-11-19T08:03:13.499Z,68.26
2022-11-19T08:06:18.260Z,68.27
2022-11-19T08:09:22.462Z,68.68
2022-11-19T08:12:26.578Z,68.99
2022-11-19T08:15:30.549Z,68.34
2022-11-19T08:18:32.366Z,67.20
2022-11-19T08:21:36.541Z,67.84
2022-11-19T08:24:39.314Z,67.81
2022-11-19T08:27:44.636Z,66.81
2022-11-19T08:30:47.391Z,66.62
2022-11-19T08:33:50.107Z,66.83
2022-11-19T08:36:52.815Z,66.55
2022-11-19T08:39:56.724Z,66.75
2022-11-19T08:42:59.765Z,65.91
2022-11-19T08:46:02.464Z,66.11
2022-11-19T08:49:05.223Z,67.17
2022-11-19T08:52:09.284Z,66.48
2022-11-19T09:01:58.439Z,65.74
2022-11-19T09:05:01.156Z,65.41
2022-11-19T09:11:25.433Z,65.87
2022-11-19T09:14:29.633Z,65.60
2022-11-19T09:17:33.769Z,66.02
2022-11-19T09:20:36.820Z,66.17
2022-11-19T09:23:41.465Z,65.84
2022-11-19T09:26:50.261Z,66.80
2022-11-19T09:29:56.622Z,66.39
2022-11-19T09:33:00.277Z,64.35
2022-11-19T09:36:03.172Z,65.41
2022-11-19T09:39:05.859Z,65.02
2022-11-19T09:42:33.562Z,64.54
2022-11-19T09:45:54.503Z,64.87
2022-11-19T09:49:05.154Z,64.61
2022-11-19T09:52:14.624Z,64.78
2022-11-19T09:55:21.775Z,64.19
2022-11-19T09:58:30.352Z,64.31
2022-11-19T10:01:36.705Z,63.85
2022-11-19T10:04:40.687Z,64.17
2022-11-19T10:07:51.124Z,64.41
2022-11-19T10:11:08.893Z,64.17
2022-11-19T10:18:08.773Z,64.39
2022-11-19T10:21:19.955Z,63.71
2022-11-19T10:24:29.587Z,63.73
2022-11-19T10:27:43.898Z,63.47
2022-11-19T10:30:50.775Z,63.33
2022-11-19T10:34:02.086Z,60.22
2022-11-19T10:37:09.574Z,60.31
2022-11-19T10:40:18.327Z,59.37
2022-11-19T10:43:26.380Z,60.20
2022-11-19T10:46:29.820Z,59.95
2022-11-19T10:49:39.020Z,60.79
2022-11-19T10:52:45.121Z,60.93
2022-11-19T10:55:54.500Z,60.70
2022-11-19T10:59:02.287Z,59.71
2022-11-19T11:02:27.603Z,58.69
2022-11-19T11:05:34.339Z,56.96
2022-11-19T11:08:49.460Z,57.00
2022-11-19T11:12:10.829Z,56.60
2022-11-19T11:15:18.209Z,53.63
2022-11-19T11:18:28.574Z,53.93
2022-11-19T11:21:36.762Z,52.30
2022-11-19T11:24:41.807Z,51.51
2022-11-19T11:27:44.485Z,51.12
2022-11-19T11:30:54.685Z,52.63
2022-11-19T11:33:59.992Z,53.06
2022-11-19T11:37:06.914Z,53.47
2022-11-19T11:44:02.518Z,53.98
2022-11-19T11:47:13.146Z,54.10
2022-11-19T11:50:21.778Z,55.15
2022-11-19T11:53:32.962Z,53.03
2022-11-19T11:56:36.893Z,53.61
2022-11-19T11:59:40.879Z,53.90
2022-11-19T12:03:01.228Z,55.06
2022-11-19T12:06:13.003Z,56.42
2022-11-19T12:09:24.225Z,56.00
2022-11-19T12:12:35.832Z,57.43
2022-11-19T12:15:52.334Z,57.08
2022-11-19T12:19:10.790Z,57.67
2022-11-19T12:22:20.866Z,56.87
2022-11-19T12:25:32.067Z,57.11
2022-11-19T12:32:34.343Z,58.25
2022-11-19T12:35:45.631Z,58.46
2022-11-19T12:38:59.565Z,59.28
2022-11-19T12:42:24.522Z,59.33
2022-11-19T12:45:36.852Z,60.44
2022-11-19T12:53:04.888Z,62.41
2022-11-19T12:56:22.134Z,62.75
2022-11-19T12:59:39.201Z,63.41
2022-11-19T13:02:51.417Z,64.90
2022-11-19T13:05:58.584Z,66.08
2022-11-19T13:09:06.379Z,66.27
2022-11-19T13:12:14.522Z,64.36
2022-11-19T13:15:23.887Z,67.03
2022-11-19T13:18:31.792Z,67.39
2022-11-19T13:21:45.687Z,67.67
2022-11-19T13:24:52.200Z,67.89
2022-11-19T13:27:57.542Z,68.30
2022-11-19T13:31:06.676Z,69.63
2022-11-19T13:34:17.936Z,69.76
2022-11-19T13:37:29.705Z,69.32
2022-11-19T13:40:37.864Z,69.64
2022-11-19T13:44:13.076Z,70.81
2022-11-19T13:47:24.327Z,69.62
2022-11-19T13:50:33.402Z,69.11
2022-11-19T13:53:41.979Z,69.77
2022-11-19T13:56:48.442Z,71.09
2022-11-19T13:59:56.854Z,71.84
2022-11-19T14:03:21.644Z,70.94
2022-11-19T14:06:47.046Z,71.65
2022-11-19T14:10:01.656Z,71.80
2022-11-19T14:13:21.574Z,71.58
2022-11-19T14:16:51.944Z,71.74
2022-11-19T14:20:18.323Z,72.31
2022-11-19T14:24:01.033Z,72.85
2022-11-19T14:27:20.941Z,73.11
2022-11-19T14:31:03.511Z,73.78
2022-11-19T14:34:25.333Z,73.34
2022-11-19T14:37:35.568Z,74.26
2022-11-19T14:40:43.663Z,74.23
2022-11-19T14:44:10.091Z,74.06
2022-11-19T14:47:37.263Z,74.57
2022-11-19T14:50:40.010Z,74.43
2022-11-19T14:53:53.679Z,75.52
2022-11-19T14:57:06.347Z,74.66
2022-11-19T15:00:30.791Z,74.94
2022-11-19T15:03:35.313Z,75.84
2022-11-19T15:06:40.161Z,75.57
2022-11-19T15:10:09.750Z,76.58
2022-11-19T15:13:29.198Z,75.13
2022-11-19T15:16:34.872Z,75.88
2022-11-19T15:19:48.872Z,75.69
2022-11-19T15:23:03.438Z,76.27
2022-11-19T15:26:16.921Z,75.58
2022-11-19T15:29:24.841Z,76.42
2022-11-19T15:32:42.838Z,76.75
2022-11-19T15:36:17.140Z,76.19
2022-11-19T15:39:27.190Z,76.25
2022-11-19T15:42:43.936Z,76.09
2022-11-19T15:45:52.165Z,75.84
2022-11-19T15:49:00.736Z,76.19
2022-11-19T15:52:18.267Z,77.46
2022-11-19T15:58:50.004Z,77.02
2022-11-19T16:02:02.163Z,76.53
2022-11-19T16:05:07.067Z,76.49
2022-11-19T16:08:14.017Z,76.75
2022-11-19T16:11:36.608Z,77.24
2022-11-19T16:15:01.855Z,77.97
2022-11-19T16:18:06.005Z,77.21
2022-11-19T16:21:08.820Z,77.98
2022-11-19T16:27:57.138Z,78.00
2022-11-19T16:31:04.605Z,77.46
2022-11-19T16:34:14.455Z,77.84
2022-11-19T16:37:20.303Z,77.91
2022-11-19T16:40:24.565Z,78.40
2022-11-19T16:43:27.634Z,78.09
2022-11-19T16:46:32.810Z,77.94
2022-11-19T16:49:48.972Z,78.26
2022-11-19T16:52:52.197Z,78.45
2022-11-19T16:56:02.122Z,79.09
2022-11-19T16:59:07.898Z,78.97
2022-11-19T17:02:17.002Z,79.42
2022-11-19T17:08:56.165Z,78.74
2022-11-19T17:12:17.721Z,77.59
2022-11-19T17:15:40.464Z,78.32
2022-11-19T17:18:46.816Z,78.59
2022-11-19T17:21:54.327Z,78.51
2022-11-19T17:24:58.412Z,79.33
2022-11-19T17:28:03.638Z,78.92
2022-11-19T17:31:15.829Z,78.38
2022-11-19T17:34:30.489Z,78.39
2022-11-19T17:37:33.194Z,78.64
2022-11-19T17:40:37.297Z,78.62
2022-11-19T17:43:59.393Z,78.97
2022-11-19T17:47:02.521Z,78.56
2022-11-19T17:50:09.042Z,79.47
2022-11-19T17:53:11.729Z,78.90
2022-11-19T18:03:03.571Z,79.63
2022-11-19T18:06:10.364Z,79.38
2022-11-19T18:09:13.127Z,79.95
2022-11-19T18:12:18.927Z,78.83
2022-11-19T18:15:22.235Z,79.45
2022-11-19T18:18:26.254Z,79.99
2022-11-19T18:21:30.340Z,79.67
2022-11-19T18:24:34.426Z,79.33
2022-11-19T18:27:37.113Z,79.04
2022-11-19T18:30:41.123Z,79.73
2022-11-19T18:33:46.549Z,79.88
2022-11-19T18:40:16.135Z,80.29
2022-11-19T18:43:39.810Z,79.08
2022-11-19T18:46:43.117Z,80.16
2022-11-19T18:49:45.827Z,79.42
2022-11-19T18:52:51.148Z,79.30
2022-11-19T18:55:53.835Z,79.23
2022-11-19T18:59:01.796Z,78.67
2022-11-19T19:02:09.620Z,79.16
2022-11-19T19:05:13.656Z,79.19
2022-11-19T19:08:17.695Z,79.02
2022-11-19T19:11:35.475Z,79.23
2022-11-19T19:14:38.463Z,79.98
2022-11-19T19:17:42.582Z,79.49
2022-11-19T19:20:45.257Z,78.72
2022-11-19T19:23:51.375Z,77.92
2022-11-19T19:26:54.101Z,78.65
2022-11-19T19:29:58.233Z,78.71
2022-11-19T19:33:00.946Z,79.32
2022-11-19T19:36:05.327Z,80.20
2022-11-19T19:39:10.744Z,79.76
2022-11-19T19:42:13.486Z,79.55
2022-11-19T19:45:16.577Z,79.29
2022-11-19T19:48:20.589Z,79.46
2022-11-19T19:51:25.673Z,80.50
2022-11-19T19:54:31.094Z,80.39
2022-11-19T19:57:33.888Z,78.61
2022-11-19T20:00:37.854Z,78.92
2022-11-19T20:03:40.968Z,78.88
2022-11-19T20:06:47.504Z,79.24
2022-11-19T20:09:52.808Z,78.53
2022-11-19T20:13:14.042Z,79.18
2022-11-19T20:16:20.090Z,79.43
2022-11-19T20:19:24.592Z,79.68
2022-11-19T20:22:27.598Z,78.55
2022-11-19T20:28:56.109Z,79.01
2022-11-19T20:31:59.085Z,78.92
2022-11-19T20:35:01.868Z,79.82
2022-11-19T20:38:05.792Z,79.05
2022-11-19T20:41:28.907Z,79.05
2022-11-19T20:44:32.861Z,79.15
2022-11-19T20:47:35.585Z,78.21
2022-11-19T20:50:39.621Z,78.58
2022-11-19T20:53:42.498Z,78.69
2022-11-19T21:00:10.135Z,77.92
2022-11-19T21:03:14.138Z,78.95
2022-11-19T21:06:18.093Z,78.49
2022-11-19T21:09:21.355Z,79.24
2022-11-19T21:12:25.801Z,78.53
2022-11-19T21:18:51.861Z,77.98
2022-11-19T21:21:54.543Z,78.08
2022-11-19T21:24:58.510Z,77.73
2022-11-19T21:31:39.446Z,77.94
2022-11-19T21:34:42.774Z,77.49
2022-11-19T21:37:46.761Z,78.25
2022-11-19T21:40:52.778Z,78.26
2022-11-19T21:43:58.107Z,78.65
2022-11-19T21:47:02.090Z,79.10
2022-11-19T21:50:06.504Z,78.38
2022-11-19T21:53:09.850Z,78.14
2022-11-19T21:56:13.899Z,78.09
2022-11-19T21:59:19.697Z,77.98
2022-11-19T22:02:22.719Z,77.47
2022-11-19T22:08:48.805Z,77.99
2022-11-19T22:11:51.456Z,77.42
2022-11-19T22:14:55.516Z,77.68
2022-11-19T22:17:59.460Z,77.91
2022-11-19T22:21:04.451Z,78.03
2022-11-19T22:24:07.717Z,78.37
2022-11-19T22:27:11.626Z,78.33
2022-11-19T22:30:16.176Z,77.01
2022-11-19T22:33:20.123Z,78.50
2022-11-19T22:36:24.056Z,78.17
2022-11-19T22:39:28.053Z,77.73
2022-11-19T22:42:30.709Z,77.68
2022-11-19T22:45:36.038Z,77.66
2022-11-19T22:48:39.065Z,77.07
2022-11-19T22:51:43.065Z,77.21
2022-11-19T22:54:45.812Z,77.67
2022-11-19T22:57:49.701Z,76.50
2022-11-19T23:00:55.110Z,77.44
2022-11-19T23:03:59.892Z,76.83
2022-11-19T23:10:24.267Z,76.50
2022-11-19T23:13:33.002Z,77.83
2022-11-19T23:16:38.974Z,77.49
2022-11-19T23:19:41.823Z,76.63
2022-11-19T23:22:45.766Z,76.89
2022-11-19T23:25:48.458Z,76.70
2022-11-19T23:28:52.965Z,77.23
2022-11-19T23:31:56.950Z,77.51
2022-11-19T23:35:00.880Z,77.26
2022-11-19T23:38:03.574Z,77.88
2022-11-19T23:41:09.413Z,77.09
2022-11-19T23:44:12.093Z,76.75
2022-11-19T23:47:17.422Z,77.51
2022-11-19T23:50:20.304Z,77.45
2022-11-19T23:53:24.275Z,76.96
2022-11-19T23:56:30.551Z,77.29
2022-11-19T23:59:33.321Z,77.25
